sensor_id;sensor_type;location;lat;lon;timestamp;P1;durP1;ratioP1;P2;durP2;ratioP2
3791;SDS011;1911;53.768;11.474;2022-12-29T00:01:52;4.60;;;2.60;;
3791;SDS011;1911;53.768;11.474;2022-12-29T00:04:17;4.73;;;2.67;;
3791;SDS011;1911;53.768;11.474;2022-12-29T00:06:43;4.93;;;2.87;;
3791;SDS011;1911;53.768;11.474;2022-12-29T00:09:12;4.23;;;2.80;;
3791;SDS011;1911;53.768;11.474;2022-12-29T00:11:39;4.60;;;2.93;;
3791;SDS011;1911;53.768;11.474;2022-12-29T00:14:04;4.40;;;2.80;;
3791;SDS011;1911;53.768;11.474;2022-12-29T00:16:49;5.40;;;3.10;;
3791;SDS011;1911;53.768;11.474;2022-12-29T00:19:14;5.63;;;3.03;;
3791;SDS011;1911;53.768;11.474;2022-12-29T00:21:59;4.93;;;3.20;;
3791;SDS011;1911;53.768;11.474;2022-12-29T00:24:43;3.97;;;2.93;;
3791;SDS011;1911;53.768;11.474;2022-12-29T00:27:18;10.37;;;3.90;;
3791;SDS011;1911;53.768;11.474;2022-12-29T00:30:04;3.70;;;3.10;;
3791;SDS011;1911;53.768;11.474;2022-12-29T00:33:11;4.17;;;2.47;;
3791;SDS011;1911;53.768;11.474;2022-12-29T00:36:31;6.67;;;3.10;;
3791;SDS011;1911;53.768;11.474;2022-12-29T00:38:56;5.20;;;3.80;;
3791;SDS011;1911;53.768;11.474;2022-12-29T00:41:43;3.97;;;3.57;;
3791;SDS011;1911;53.768;11.474;2022-12-29T00:44:28;4.50;;;2.87;;
3791;SDS011;1911;53.768;11.474;2022-12-29T00:46:53;5.60;;;2.70;;
3791;SDS011;1911;53.768;11.474;2022-12-29T00:49:19;5.97;;;2.57;;
3791;SDS011;1911;53.768;11.474;2022-12-29T00:54:30;6.40;;;3.53;;
3791;SDS011;1911;53.768;11.474;2022-12-29T00:56:58;4.10;;;2.90;;
3791;SDS011;1911;53.768;11.474;2022-12-29T00:59:24;4.87;;;3.17;;
3791;SDS011;1911;53.768;11.474;2022-12-29T01:01:50;6.30;;;3.10;;
3791;SDS011;1911;53.768;11.474;2022-12-29T01:04:17;4.10;;;2.80;;
3791;SDS011;1911;53.768;11.474;2022-12-29T01:06:44;5.83;;;3.30;;
3791;SDS011;1911;53.768;11.474;2022-12-29T01:09:10;4.07;;;3.03;;
3791;SDS011;1911;53.768;11.474;2022-12-29T01:11:54;4.20;;;3.23;;
3791;SDS011;1911;53.768;11.474;2022-12-29T01:14:21;3.30;;;2.73;;
3791;SDS011;1911;53.768;11.474;2022-12-29T01:16:47;5.87;;;2.87;;
3791;SDS011;1911;53.768;11.474;2022-12-29T01:19:13;5.73;;;3.27;;
3791;SDS011;1911;53.768;11.474;2022-12-29T01:21:39;5.13;;;3.30;;
3791;SDS011;1911;53.768;11.474;2022-12-29T01:24:05;7.47;;;3.30;;
3791;SDS011;1911;53.768;11.474;2022-12-29T01:26:31;4.70;;;3.33;;
3791;SDS011;1911;53.768;11.474;2022-12-29T01:28:56;3.80;;;3.27;;
3791;SDS011;1911;53.768;11.474;2022-12-29T01:31:22;7.67;;;3.40;;
3791;SDS011;1911;53.768;11.474;2022-12-29T01:33:48;5.90;;;3.87;;
3791;SDS011;1911;53.768;11.474;2022-12-29T01:36:14;4.77;;;3.43;;
3791;SDS011;1911;53.768;11.474;2022-12-29T01:38:41;5.37;;;3.80;;
3791;SDS011;1911;53.768;11.474;2022-12-29T01:41:08;3.93;;;3.60;;
3791;SDS011;1911;53.768;11.474;2022-12-29T01:51:29;6.70;;;3.53;;
3791;SDS011;1911;53.768;11.474;2022-12-29T01:53:58;5.10;;;3.30;;
3791;SDS011;1911;53.768;11.474;2022-12-29T01:56:26;4.17;;;3.53;;
3791;SDS011;1911;53.768;11.474;2022-12-29T01:58:54;5.33;;;3.57;;
3791;SDS011;1911;53.768;11.474;2022-12-29T02:01:25;5.60;;;3.80;;
3791;SDS011;1911;53.768;11.474;2022-12-29T02:03:50;5.30;;;3.80;;
3791;SDS011;1911;53.768;11.474;2022-12-29T02:08:50;6.83;;;4.10;;
3791;SDS011;1911;53.768;11.474;2022-12-29T02:11:20;5.13;;;3.70;;
3791;SDS011;1911;53.768;11.474;2022-12-29T02:13:48;5.30;;;4.00;;
3791;SDS011;1911;53.768;11.474;2022-12-29T02:32:53;4.93;;;3.87;;
3791;SDS011;1911;53.768;11.474;2022-12-29T02:35:29;5.43;;;3.90;;
3791;SDS011;1911;53.768;11.474;2022-12-29T02:41:09;4.90;;;3.00;;
3791;SDS011;1911;53.768;11.474;2022-12-29T02:43:59;4.93;;;2.53;;
3791;SDS011;1911;53.768;11.474;2022-12-29T02:51:54;5.10;;;3.17;;
3791;SDS011;1911;53.768;11.474;2022-12-29T02:54:26;3.90;;;2.33;;
3791;SDS011;1911;53.768;11.474;2022-12-29T02:59:44;4.57;;;3.07;;
3791;SDS011;1911;53.768;11.474;2022-12-29T03:07:45;4.30;;;2.73;;
3791;SDS011;1911;53.768;11.474;2022-12-29T03:19:07;4.53;;;2.90;;
3791;SDS011;1911;53.768;11.474;2022-12-29T03:24:28;3.60;;;2.50;;
3791;SDS011;1911;53.768;11.474;2022-12-29T03:27:01;3.43;;;3.00;;
3791;SDS011;1911;53.768;11.474;2022-12-29T03:29:30;4.17;;;3.20;;
3791;SDS011;1911;53.768;11.474;2022-12-29T03:31:59;4.20;;;3.13;;
3791;SDS011;1911;53.768;11.474;2022-12-29T03:34:28;3.73;;;2.60;;
3791;SDS011;1911;53.768;11.474;2022-12-29T03:36:57;6.77;;;3.43;;
3791;SDS011;1911;53.768;11.474;2022-12-29T03:39:30;7.00;;;3.40;;
3791;SDS011;1911;53.768;11.474;2022-12-29T03:42:02;9.23;;;3.03;;
3791;SDS011;1911;53.768;11.474;2022-12-29T03:44:31;4.10;;;2.70;;
3791;SDS011;1911;53.768;11.474;2022-12-29T03:46:59;3.37;;;2.30;;
3791;SDS011;1911;53.768;11.474;2022-12-29T03:49:25;7.10;;;2.73;;
3791;SDS011;1911;53.768;11.474;2022-12-29T03:51:50;3.30;;;2.53;;
3791;SDS011;1911;53.768;11.474;2022-12-29T03:54:16;3.10;;;2.13;;
3791;SDS011;1911;53.768;11.474;2022-12-29T03:56:42;3.70;;;2.50;;
3791;SDS011;1911;53.768;11.474;2022-12-29T03:59:07;4.10;;;2.77;;
3791;SDS011;1911;53.768;11.474;2022-12-29T04:01:33;3.53;;;2.70;;
3791;SDS011;1911;53.768;11.474;2022-12-29T04:03:59;2.80;;;2.40;;
3791;SDS011;1911;53.768;11.474;2022-12-29T04:06:24;2.97;;;2.27;;
3791;SDS011;1911;53.768;11.474;2022-12-29T04:08:50;3.40;;;2.70;;
3791;SDS011;1911;53.768;11.474;2022-12-29T04:11:16;2.97;;;2.23;;
3791;SDS011;1911;53.768;11.474;2022-12-29T04:13:41;3.77;;;2.50;;
3791;SDS011;1911;53.768;11.474;2022-12-29T04:16:07;3.80;;;2.30;;
3791;SDS011;1911;53.768;11.474;2022-12-29T04:18:33;2.73;;;2.20;;
3791;SDS011;1911;53.768;11.474;2022-12-29T04:20:58;3.97;;;2.13;;
3791;SDS011;1911;53.768;11.474;2022-12-29T04:23:24;7.40;;;2.10;;
3791;SDS011;1911;53.768;11.474;2022-12-29T04:25:50;3.70;;;2.47;;
3791;SDS011;1911;53.768;11.474;2022-12-29T04:28:16;2.33;;;2.13;;
3791;SDS011;1911;53.768;11.474;2022-12-29T04:30:42;2.83;;;2.20;;
3791;SDS011;1911;53.768;11.474;2022-12-29T04:33:08;5.30;;;2.10;;
3791;SDS011;1911;53.768;11.474;2022-12-29T04:35:34;2.00;;;1.80;;
3791;SDS011;1911;53.768;11.474;2022-12-29T04:38:00;5.40;;;2.77;;
3791;SDS011;1911;53.768;11.474;2022-12-29T04:40:26;3.13;;;1.93;;
3791;SDS011;1911;53.768;11.474;2022-12-29T04:42:51;2.47;;;1.83;;
3791;SDS011;1911;53.768;11.474;2022-12-29T04:45:17;3.60;;;2.17;;
3791;SDS011;1911;53.768;11.474;2022-12-29T04:47:43;3.43;;;1.80;;
3791;SDS011;1911;53.768;11.474;2022-12-29T04:50:09;2.20;;;1.50;;
3791;SDS011;1911;53.768;11.474;2022-12-29T04:52:35;3.63;;;1.80;;
3791;SDS011;1911;53.768;11.474;2022-12-29T04:55:01;3.40;;;1.90;;
3791;SDS011;1911;53.768;11.474;2022-12-29T04:57:27;2.40;;;1.80;;
3791;SDS011;1911;53.768;11.474;2022-12-29T04:59:52;3.97;;;1.87;;
3791;SDS011;1911;53.768;11.474;2022-12-29T05:02:18;3.43;;;1.50;;
3791;SDS011;1911;53.768;11.474;2022-12-29T05:04:44;1.90;;;1.60;;
3791;SDS011;1911;53.768;11.474;2022-12-29T05:07:10;2.27;;;1.20;;
3791;SDS011;1911;53.768;11.474;2022-12-29T05:09:36;4.07;;;1.70;;
3791;SDS011;1911;53.768;11.474;2022-12-29T05:12:02;2.30;;;1.60;;
3791;SDS011;1911;53.768;11.474;2022-12-29T05:14:28;3.00;;;1.40;;
3791;SDS011;1911;53.768;11.474;2022-12-29T05:16:54;1.67;;;1.20;;
3791;SDS011;1911;53.768;11.474;2022-12-29T05:19:19;2.40;;;1.60;;
3791;SDS011;1911;53.768;11.474;2022-12-29T05:21:45;2.20;;;1.30;;
3791;SDS011;1911;53.768;11.474;2022-12-29T05:24:10;3.60;;;2.27;;
3791;SDS011;1911;53.768;11.474;2022-12-29T05:26:36;2.30;;;1.43;;
3791;SDS011;1911;53.768;11.474;2022-12-29T05:29:02;2.27;;;1.20;;
3791;SDS011;1911;53.768;11.474;2022-12-29T05:31:28;2.33;;;1.20;;
3791;SDS011;1911;53.768;11.474;2022-12-29T05:33:54;2.10;;;1.23;;
3791;SDS011;1911;53.768;11.474;2022-12-29T05:36:19;2.20;;;1.60;;
3791;SDS011;1911;53.768;11.474;2022-12-29T05:38:45;3.60;;;1.50;;
3791;SDS011;1911;53.768;11.474;2022-12-29T05:41:11;8.00;;;1.50;;
3791;SDS011;1911;53.768;11.474;2022-12-29T05:43:36;6.37;;;1.70;;
3791;SDS011;1911;53.768;11.474;2022-12-29T05:46:02;1.87;;;1.37;;
3791;SDS011;1911;53.768;11.474;2022-12-29T05:48:28;2.47;;;1.63;;
3791;SDS011;1911;53.768;11.474;2022-12-29T05:50:54;3.67;;;1.77;;
3791;SDS011;1911;53.768;11.474;2022-12-29T05:53:19;2.70;;;1.20;;
3791;SDS011;1911;53.768;11.474;2022-12-29T05:55:48;3.73;;;1.60;;
3791;SDS011;1911;53.768;11.474;2022-12-29T05:58:15;1.90;;;1.40;;
3791;SDS011;1911;53.768;11.474;2022-12-29T06:00:41;4.97;;;1.73;;
3791;SDS011;1911;53.768;11.474;2022-12-29T06:03:07;2.20;;;1.50;;
3791;SDS011;1911;53.768;11.474;2022-12-29T06:05:33;1.63;;;1.40;;
3791;SDS011;1911;53.768;11.474;2022-12-29T06:07:58;2.60;;;1.37;;
3791;SDS011;1911;53.768;11.474;2022-12-29T06:10:24;2.37;;;1.63;;
3791;SDS011;1911;53.768;11.474;2022-12-29T06:12:50;3.87;;;2.00;;
3791;SDS011;1911;53.768;11.474;2022-12-29T06:15:16;3.90;;;2.17;;
3791;SDS011;1911;53.768;11.474;2022-12-29T06:17:42;3.50;;;2.27;;
3791;SDS011;1911;53.768;11.474;2022-12-29T06:20:08;2.43;;;1.57;;
3791;SDS011;1911;53.768;11.474;2022-12-29T06:22:35;2.80;;;1.40;;
3791;SDS011;1911;53.768;11.474;2022-12-29T06:25:01;2.87;;;1.67;;
3791;SDS011;1911;53.768;11.474;2022-12-29T06:27:27;3.17;;;1.70;;
3791;SDS011;1911;53.768;11.474;2022-12-29T06:29:53;1.50;;;1.20;;
3791;SDS011;1911;53.768;11.474;2022-12-29T06:32:19;2.70;;;1.87;;
3791;SDS011;1911;53.768;11.474;2022-12-29T06:34:44;2.80;;;1.43;;
3791;SDS011;1911;53.768;11.474;2022-12-29T06:37:10;4.07;;;2.10;;
3791;SDS011;1911;53.768;11.474;2022-12-29T06:39:36;3.97;;;1.53;;
3791;SDS011;1911;53.768;11.474;2022-12-29T06:42:02;1.80;;;1.40;;
3791;SDS011;1911;53.768;11.474;2022-12-29T06:44:28;2.40;;;1.30;;
3791;SDS011;1911;53.768;11.474;2022-12-29T06:46:54;2.90;;;1.70;;
3791;SDS011;1911;53.768;11.474;2022-12-29T06:49:19;4.07;;;1.60;;
3791;SDS011;1911;53.768;11.474;2022-12-29T06:51:45;3.80;;;1.80;;
3791;SDS011;1911;53.768;11.474;2022-12-29T06:54:12;2.20;;;1.80;;
3791;SDS011;1911;53.768;11.474;2022-12-29T06:56:38;3.00;;;1.77;;
3791;SDS011;1911;53.768;11.474;2022-12-29T06:59:03;2.23;;;1.67;;
3791;SDS011;1911;53.768;11.474;2022-12-29T07:01:29;2.20;;;1.40;;
3791;SDS011;1911;53.768;11.474;2022-12-29T07:03:55;4.00;;;1.90;;
3791;SDS011;1911;53.768;11.474;2022-12-29T07:06:21;5.30;;;2.73;;
3791;SDS011;1911;53.768;11.474;2022-12-29T07:08:46;4.97;;;2.07;;
3791;SDS011;1911;53.768;11.474;2022-12-29T07:11:12;5.90;;;1.20;;
3791;SDS011;1911;53.768;11.474;2022-12-29T07:13:38;2.83;;;1.80;;
3791;SDS011;1911;53.768;11.474;2022-12-29T07:16:09;2.43;;;1.67;;
3791;SDS011;1911;53.768;11.474;2022-12-29T07:18:35;1.80;;;1.30;;
3791;SDS011;1911;53.768;11.474;2022-12-29T07:21:01;1.90;;;1.17;;
3791;SDS011;1911;53.768;11.474;2022-12-29T07:23:27;1.63;;;1.30;;
3791;SDS011;1911;53.768;11.474;2022-12-29T07:26:03;1.77;;;1.00;;
3791;SDS011;1911;53.768;11.474;2022-12-29T07:28:30;1.57;;;0.90;;
3791;SDS011;1911;53.768;11.474;2022-12-29T07:30:57;1.90;;;1.50;;
3791;SDS011;1911;53.768;11.474;2022-12-29T07:33:23;4.07;;;1.77;;
3791;SDS011;1911;53.768;11.474;2022-12-29T07:35:49;2.23;;;1.27;;
3791;SDS011;1911;53.768;11.474;2022-12-29T07:38:15;5.27;;;1.63;;
3791;SDS011;1911;53.768;11.474;2022-12-29T07:40:41;5.20;;;1.83;;
3791;SDS011;1911;53.768;11.474;2022-12-29T07:43:07;2.50;;;1.20;;
3791;SDS011;1911;53.768;11.474;2022-12-29T07:45:33;3.13;;;2.43;;
3791;SDS011;1911;53.768;11.474;2022-12-29T07:47:59;2.17;;;1.50;;
3791;SDS011;1911;53.768;11.474;2022-12-29T07:50:24;2.40;;;1.73;;
3791;SDS011;1911;53.768;11.474;2022-12-29T07:52:50;5.77;;;3.53;;
3791;SDS011;1911;53.768;11.474;2022-12-29T07:55:16;4.00;;;1.43;;
3791;SDS011;1911;53.768;11.474;2022-12-29T07:57:42;1.80;;;1.23;;
3791;SDS011;1911;53.768;11.474;2022-12-29T08:00:08;2.47;;;1.40;;
3791;SDS011;1911;53.768;11.474;2022-12-29T08:02:34;2.13;;;1.40;;
3791;SDS011;1911;53.768;11.474;2022-12-29T08:05:00;3.33;;;1.70;;
3791;SDS011;1911;53.768;11.474;2022-12-29T08:07:26;2.30;;;1.23;;
3791;SDS011;1911;53.768;11.474;2022-12-29T08:09:52;2.77;;;1.60;;
3791;SDS011;1911;53.768;11.474;2022-12-29T08:12:17;1.93;;;1.30;;
3791;SDS011;1911;53.768;11.474;2022-12-29T08:14:43;3.90;;;2.00;;
3791;SDS011;1911;53.768;11.474;2022-12-29T08:17:08;2.70;;;1.40;;
3791;SDS011;1911;53.768;11.474;2022-12-29T08:19:35;2.10;;;1.40;;
3791;SDS011;1911;53.768;11.474;2022-12-29T08:22:01;2.63;;;1.33;;
3791;SDS011;1911;53.768;11.474;2022-12-29T08:24:27;3.60;;;1.27;;
3791;SDS011;1911;53.768;11.474;2022-12-29T08:26:52;2.40;;;1.53;;
3791;SDS011;1911;53.768;11.474;2022-12-29T08:29:18;1.90;;;1.40;;
3791;SDS011;1911;53.768;11.474;2022-12-29T08:31:44;2.10;;;1.60;;
3791;SDS011;1911;53.768;11.474;2022-12-29T08:34:10;2.70;;;1.33;;
3791;SDS011;1911;53.768;11.474;2022-12-29T08:36:35;2.03;;;1.27;;
3791;SDS011;1911;53.768;11.474;2022-12-29T08:39:01;3.50;;;1.20;;
3791;SDS011;1911;53.768;11.474;2022-12-29T08:41:27;2.40;;;1.37;;
3791;SDS011;1911;53.768;11.474;2022-12-29T08:43:52;3.60;;;1.20;;
3791;SDS011;1911;53.768;11.474;2022-12-29T08:46:18;1.07;;;0.80;;
3791;SDS011;1911;53.768;11.474;2022-12-29T08:48:44;3.87;;;0.80;;
3791;SDS011;1911;53.768;11.474;2022-12-29T08:51:10;1.63;;;0.60;;
3791;SDS011;1911;53.768;11.474;2022-12-29T08:53:36;1.47;;;0.70;;
3791;SDS011;1911;53.768;11.474;2022-12-29T08:56:01;1.83;;;0.80;;
3791;SDS011;1911;53.768;11.474;2022-12-29T08:58:27;1.97;;;0.70;;
3791;SDS011;1911;53.768;11.474;2022-12-29T09:00:53;1.53;;;0.73;;
3791;SDS011;1911;53.768;11.474;2022-12-29T09:03:20;3.87;;;0.93;;
3791;SDS011;1911;53.768;11.474;2022-12-29T09:05:49;1.60;;;0.60;;
3791;SDS011;1911;53.768;11.474;2022-12-29T09:08:16;2.47;;;0.70;;
3791;SDS011;1911;53.768;11.474;2022-12-29T09:10:43;1.50;;;0.50;;
3791;SDS011;1911;53.768;11.474;2022-12-29T09:13:09;2.07;;;0.70;;
3791;SDS011;1911;53.768;11.474;2022-12-29T09:15:35;1.80;;;0.80;;
3791;SDS011;1911;53.768;11.474;2022-12-29T09:18:00;1.20;;;0.53;;
3791;SDS011;1911;53.768;11.474;2022-12-29T09:20:26;1.93;;;0.60;;
3791;SDS011;1911;53.768;11.474;2022-12-29T09:22:52;2.80;;;0.90;;
3791;SDS011;1911;53.768;11.474;2022-12-29T09:25:17;1.43;;;0.70;;
3791;SDS011;1911;53.768;11.474;2022-12-29T09:27:43;1.40;;;0.80;;
3791;SDS011;1911;53.768;11.474;2022-12-29T09:30:10;2.93;;;0.70;;
3791;SDS011;1911;53.768;11.474;2022-12-29T09:32:36;1.00;;;0.70;;
3791;SDS011;1911;53.768;11.474;2022-12-29T09:35:02;1.23;;;0.70;;
3791;SDS011;1911;53.768;11.474;2022-12-29T09:37:28;2.07;;;0.83;;
3791;SDS011;1911;53.768;11.474;2022-12-29T09:39:54;2.00;;;0.70;;
3791;SDS011;1911;53.768;11.474;2022-12-29T09:42:35;2.43;;;0.80;;
3791;SDS011;1911;53.768;11.474;2022-12-29T09:47:54;2.27;;;0.60;;
3791;SDS011;1911;53.768;11.474;2022-12-29T09:50:22;1.00;;;0.50;;
3791;SDS011;1911;53.768;11.474;2022-12-29T09:55:51;1.63;;;0.70;;
3791;SDS011;1911;53.768;11.474;2022-12-29T10:03:49;2.03;;;0.50;;
3791;SDS011;1911;53.768;11.474;2022-12-29T10:09:08;1.33;;;0.60;;
3791;SDS011;1911;53.768;11.474;2022-12-29T10:18:05;1.57;;;0.57;;
3791;SDS011;1911;53.768;11.474;2022-12-29T10:20:48;0.97;;;0.47;;
3791;SDS011;1911;53.768;11.474;2022-12-29T10:26:09;1.67;;;0.80;;
3791;SDS011;1911;53.768;11.474;2022-12-29T10:28:41;1.20;;;0.60;;
3791;SDS011;1911;53.768;11.474;2022-12-29T10:31:13;1.37;;;0.70;;
3791;SDS011;1911;53.768;11.474;2022-12-29T10:33:48;11.13;;;2.43;;
3791;SDS011;1911;53.768;11.474;2022-12-29T10:36:18;3.20;;;0.80;;
3791;SDS011;1911;53.768;11.474;2022-12-29T10:42:13;1.63;;;0.80;;
3791;SDS011;1911;53.768;11.474;2022-12-29T10:44:46;1.40;;;0.60;;
3791;SDS011;1911;53.768;11.474;2022-12-29T10:47:14;1.30;;;0.60;;
3791;SDS011;1911;53.768;11.474;2022-12-29T10:49:42;2.63;;;0.70;;
3791;SDS011;1911;53.768;11.474;2022-12-29T10:52:11;3.50;;;1.10;;
3791;SDS011;1911;53.768;11.474;2022-12-29T10:54:51;3.03;;;0.80;;
3791;SDS011;1911;53.768;11.474;2022-12-29T10:57:42;1.73;;;0.87;;
3791;SDS011;1911;53.768;11.474;2022-12-29T11:00:18;1.10;;;0.60;;
3791;SDS011;1911;53.768;11.474;2022-12-29T11:05:56;2.80;;;0.83;;
3791;SDS011;1911;53.768;11.474;2022-12-29T11:08:28;3.83;;;1.20;;
3791;SDS011;1911;53.768;11.474;2022-12-29T11:11:02;3.53;;;0.70;;
3791;SDS011;1911;53.768;11.474;2022-12-29T11:13:32;1.53;;;0.80;;
3791;SDS011;1911;53.768;11.474;2022-12-29T11:16:00;2.67;;;1.17;;
3791;SDS011;1911;53.768;11.474;2022-12-29T11:18:37;4.10;;;0.90;;
3791;SDS011;1911;53.768;11.474;2022-12-29T11:21:06;1.70;;;0.70;;
3791;SDS011;1911;53.768;11.474;2022-12-29T11:23:54;3.37;;;0.77;;
3791;SDS011;1911;53.768;11.474;2022-12-29T11:26:25;4.20;;;0.83;;
3791;SDS011;1911;53.768;11.474;2022-12-29T11:31:52;1.30;;;0.60;;
3791;SDS011;1911;53.768;11.474;2022-12-29T11:37:06;1.70;;;1.00;;
3791;SDS011;1911;53.768;11.474;2022-12-29T11:39:37;3.17;;;0.80;;
3791;SDS011;1911;53.768;11.474;2022-12-29T11:42:05;5.83;;;1.00;;
3791;SDS011;1911;53.768;11.474;2022-12-29T11:44:37;5.73;;;1.10;;
3791;SDS011;1911;53.768;11.474;2022-12-29T11:47:09;1.10;;;0.60;;
3791;SDS011;1911;53.768;11.474;2022-12-29T11:49:49;3.13;;;0.90;;
3791;SDS011;1911;53.768;11.474;2022-12-29T11:52:23;2.90;;;0.90;;
3791;SDS011;1911;53.768;11.474;2022-12-29T11:54:53;3.10;;;0.93;;
3791;SDS011;1911;53.768;11.474;2022-12-29T11:57:21;2.90;;;1.13;;
3791;SDS011;1911;53.768;11.474;2022-12-29T11:59:51;1.17;;;0.97;;
3791;SDS011;1911;53.768;11.474;2022-12-29T12:04:54;3.73;;;0.97;;
3791;SDS011;1911;53.768;11.474;2022-12-29T12:10:19;3.10;;;1.10;;
3791;SDS011;1911;53.768;11.474;2022-12-29T12:12:53;2.13;;;1.00;;
3791;SDS011;1911;53.768;11.474;2022-12-29T12:15:20;6.40;;;1.10;;
3791;SDS011;1911;53.768;11.474;2022-12-29T12:17:52;4.60;;;1.07;;
3791;SDS011;1911;53.768;11.474;2022-12-29T12:20:38;3.10;;;1.10;;
3791;SDS011;1911;53.768;11.474;2022-12-29T12:28:37;2.63;;;0.80;;
3791;SDS011;1911;53.768;11.474;2022-12-29T12:34:04;5.90;;;1.47;;
3791;SDS011;1911;53.768;11.474;2022-12-29T12:50:20;2.50;;;0.90;;
3791;SDS011;1911;53.768;11.474;2022-12-29T12:53:07;2.53;;;0.90;;
3791;SDS011;1911;53.768;11.474;2022-12-29T13:01:59;2.47;;;0.80;;
3791;SDS011;1911;53.768;11.474;2022-12-29T13:10:42;5.30;;;1.13;;
3791;SDS011;1911;53.768;11.474;2022-12-29T13:13:35;2.37;;;1.00;;
3791;SDS011;1911;53.768;11.474;2022-12-29T13:16:31;2.67;;;0.90;;
3791;SDS011;1911;53.768;11.474;2022-12-29T13:19:18;3.97;;;0.93;;
3791;SDS011;1911;53.768;11.474;2022-12-29T13:21:56;8.30;;;0.80;;
3791;SDS011;1911;53.768;11.474;2022-12-29T13:27:56;5.30;;;1.20;;
3791;SDS011;1911;53.768;11.474;2022-12-29T13:31:24;4.10;;;1.43;;
3791;SDS011;1911;53.768;11.474;2022-12-29T13:36:52;1.97;;;1.00;;
3791;SDS011;1911;53.768;11.474;2022-12-29T13:39:23;3.10;;;2.13;;
3791;SDS011;1911;53.768;11.474;2022-12-29T13:41:55;4.60;;;1.03;;
3791;SDS011;1911;53.768;11.474;2022-12-29T13:44:22;1.97;;;0.93;;
3791;SDS011;1911;53.768;11.474;2022-12-29T13:47:14;3.00;;;0.90;;
3791;SDS011;1911;53.768;11.474;2022-12-29T13:50:01;2.00;;;0.70;;
3791;SDS011;1911;53.768;11.474;2022-12-29T14:00:33;4.70;;;0.97;;
3791;SDS011;1911;53.768;11.474;2022-12-29T14:05:37;5.27;;;0.90;;
3791;SDS011;1911;53.768;11.474;2022-12-29T14:08:03;4.30;;;0.80;;
3791;SDS011;1911;53.768;11.474;2022-12-29T14:10:34;1.60;;;0.83;;
3791;SDS011;1911;53.768;11.474;2022-12-29T14:13:06;3.57;;;0.70;;
3791;SDS011;1911;53.768;11.474;2022-12-29T14:15:38;4.37;;;0.90;;
3791;SDS011;1911;53.768;11.474;2022-12-29T14:18:17;3.90;;;1.60;;
3791;SDS011;1911;53.768;11.474;2022-12-29T14:21:08;4.43;;;0.87;;
3791;SDS011;1911;53.768;11.474;2022-12-29T14:23:36;6.53;;;1.20;;
3791;SDS011;1911;53.768;11.474;2022-12-29T14:28:34;2.93;;;0.93;;
3791;SDS011;1911;53.768;11.474;2022-12-29T14:31:04;2.17;;;0.70;;
3791;SDS011;1911;53.768;11.474;2022-12-29T14:36:35;4.43;;;1.47;;
3791;SDS011;1911;53.768;11.474;2022-12-29T14:39:03;5.93;;;1.03;;
3791;SDS011;1911;53.768;11.474;2022-12-29T14:41:36;3.67;;;1.03;;
3791;SDS011;1911;53.768;11.474;2022-12-29T14:47:00;4.60;;;1.63;;
3791;SDS011;1911;53.768;11.474;2022-12-29T14:49:31;4.73;;;1.03;;
3791;SDS011;1911;53.768;11.474;2022-12-29T14:52:18;1.20;;;0.60;;
3791;SDS011;1911;53.768;11.474;2022-12-29T14:54:49;3.93;;;0.90;;
3791;SDS011;1911;53.768;11.474;2022-12-29T14:57:20;3.20;;;1.20;;
3791;SDS011;1911;53.768;11.474;2022-12-29T14:59:53;2.27;;;0.80;;
3791;SDS011;1911;53.768;11.474;2022-12-29T15:02:24;3.87;;;1.13;;
3791;SDS011;1911;53.768;11.474;2022-12-29T15:04:58;4.40;;;0.87;;
3791;SDS011;1911;53.768;11.474;2022-12-29T15:07:26;5.43;;;1.23;;
3791;SDS011;1911;53.768;11.474;2022-12-29T15:09:54;6.90;;;1.20;;
3791;SDS011;1911;53.768;11.474;2022-12-29T15:12:38;4.47;;;0.93;;
3791;SDS011;1911;53.768;11.474;2022-12-29T15:15:36;5.13;;;1.10;;
3791;SDS011;1911;53.768;11.474;2022-12-29T15:18:11;3.20;;;1.20;;
3791;SDS011;1911;53.768;11.474;2022-12-29T15:20:43;4.93;;;0.93;;
3791;SDS011;1911;53.768;11.474;2022-12-29T15:23:10;1.90;;;0.87;;
3791;SDS011;1911;53.768;11.474;2022-12-29T15:26:13;1.70;;;0.60;;
3791;SDS011;1911;53.768;11.474;2022-12-29T15:28:40;1.03;;;0.53;;
3791;SDS011;1911;53.768;11.474;2022-12-29T15:31:17;4.07;;;1.00;;
3791;SDS011;1911;53.768;11.474;2022-12-29T15:33:48;1.07;;;0.50;;
3791;SDS011;1911;53.768;11.474;2022-12-29T15:36:23;1.30;;;0.70;;
3791;SDS011;1911;53.768;11.474;2022-12-29T15:38:51;1.17;;;0.60;;
3791;SDS011;1911;53.768;11.474;2022-12-29T15:44:40;5.33;;;1.23;;
3791;SDS011;1911;53.768;11.474;2022-12-29T15:47:15;2.70;;;0.80;;
3791;SDS011;1911;53.768;11.474;2022-12-29T15:49:58;4.70;;;1.10;;
3791;SDS011;1911;53.768;11.474;2022-12-29T15:52:40;1.70;;;0.90;;
3791;SDS011;1911;53.768;11.474;2022-12-29T15:55:06;1.90;;;1.10;;
3791;SDS011;1911;53.768;11.474;2022-12-29T15:57:46;1.20;;;0.87;;
3791;SDS011;1911;53.768;11.474;2022-12-29T16:00:25;2.70;;;1.03;;
3791;SDS011;1911;53.768;11.474;2022-12-29T16:02:53;6.83;;;2.33;;
3791;SDS011;1911;53.768;11.474;2022-12-29T16:05:21;3.10;;;1.77;;
3791;SDS011;1911;53.768;11.474;2022-12-29T16:07:57;3.90;;;1.20;;
3791;SDS011;1911;53.768;11.474;2022-12-29T16:10:26;5.73;;;1.87;;
3791;SDS011;1911;53.768;11.474;2022-12-29T16:13:02;4.23;;;1.13;;
3791;SDS011;1911;53.768;11.474;2022-12-29T16:15:44;2.73;;;1.20;;
3791;SDS011;1911;53.768;11.474;2022-12-29T16:18:14;7.27;;;2.20;;
3791;SDS011;1911;53.768;11.474;2022-12-29T16:20:49;2.60;;;1.27;;
3791;SDS011;1911;53.768;11.474;2022-12-29T16:23:17;1.83;;;1.17;;
3791;SDS011;1911;53.768;11.474;2022-12-29T16:25:49;2.83;;;1.00;;
3791;SDS011;1911;53.768;11.474;2022-12-29T16:28:20;5.03;;;1.10;;
3791;SDS011;1911;53.768;11.474;2022-12-29T16:30:56;2.50;;;0.90;;
3791;SDS011;1911;53.768;11.474;2022-12-29T16:36:31;9.40;;;1.83;;
3791;SDS011;1911;53.768;11.474;2022-12-29T16:41:47;4.67;;;1.40;;
3791;SDS011;1911;53.768;11.474;2022-12-29T16:44:31;2.27;;;1.00;;
3791;SDS011;1911;53.768;11.474;2022-12-29T16:46:57;4.13;;;2.73;;
3791;SDS011;1911;53.768;11.474;2022-12-29T16:49:28;2.33;;;1.00;;
3791;SDS011;1911;53.768;11.474;2022-12-29T16:51:55;6.27;;;1.10;;
3791;SDS011;1911;53.768;11.474;2022-12-29T16:54:23;5.80;;;1.17;;
3791;SDS011;1911;53.768;11.474;2022-12-29T16:59:50;2.80;;;1.10;;
3791;SDS011;1911;53.768;11.474;2022-12-29T17:02:19;3.10;;;0.83;;
3791;SDS011;1911;53.768;11.474;2022-12-29T17:04:46;4.57;;;1.67;;
3791;SDS011;1911;53.768;11.474;2022-12-29T17:07:18;3.43;;;1.33;;
3791;SDS011;1911;53.768;11.474;2022-12-29T17:09:48;2.30;;;0.97;;
3791;SDS011;1911;53.768;11.474;2022-12-29T17:12:16;2.30;;;1.17;;
3791;SDS011;1911;53.768;11.474;2022-12-29T17:17:59;5.45;;;1.50;;
3791;SDS011;1911;53.768;11.474;2022-12-29T17:20:26;4.30;;;1.63;;
3791;SDS011;1911;53.768;11.474;2022-12-29T17:22:54;7.03;;;1.50;;
3791;SDS011;1911;53.768;11.474;2022-12-29T17:25:26;4.88;;;1.73;;
3791;SDS011;1911;53.768;11.474;2022-12-29T17:27:59;6.07;;;1.53;;
3791;SDS011;1911;53.768;11.474;2022-12-29T17:30:31;3.60;;;1.57;;
3791;SDS011;1911;53.768;11.474;2022-12-29T17:33:00;4.83;;;1.57;;
3791;SDS011;1911;53.768;11.474;2022-12-29T17:35:28;4.83;;;2.10;;
3791;SDS011;1911;53.768;11.474;2022-12-29T17:37:53;3.23;;;0.90;;
3791;SDS011;1911;53.768;11.474;2022-12-29T17:40:20;4.50;;;2.00;;
3791;SDS011;1911;53.768;11.474;2022-12-29T17:42:52;3.83;;;1.30;;
3791;SDS011;1911;53.768;11.474;2022-12-29T17:45:29;8.73;;;1.40;;
3791;SDS011;1911;53.768;11.474;2022-12-29T17:47:56;3.90;;;1.27;;
3791;SDS011;1911;53.768;11.474;2022-12-29T17:50:25;2.83;;;1.40;;
3791;SDS011;1911;53.768;11.474;2022-12-29T17:53:00;4.50;;;1.50;;
3791;SDS011;1911;53.768;11.474;2022-12-29T17:55:28;8.70;;;2.00;;
3791;SDS011;1911;53.768;11.474;2022-12-29T17:57:57;7.90;;;2.10;;
3791;SDS011;1911;53.768;11.474;2022-12-29T18:00:24;9.57;;;2.10;;
3791;SDS011;1911;53.768;11.474;2022-12-29T18:02:53;4.67;;;1.90;;
3791;SDS011;1911;53.768;11.474;2022-12-29T18:05:21;7.33;;;1.87;;
3791;SDS011;1911;53.768;11.474;2022-12-29T18:07:52;4.50;;;1.70;;
3791;SDS011;1911;53.768;11.474;2022-12-29T18:10:19;1.70;;;1.30;;
3791;SDS011;1911;53.768;11.474;2022-12-29T18:12:47;3.73;;;1.40;;